sensor_id;sensor_type;location;lat;lon;timestamp;P1;durP1;ratioP1;P2;durP2;ratioP2
75898;SDS011;64576;50.460;4.866;2022-12-18T00:01:21;49.88;;;24.80;;
75898;SDS011;64576;50.460;4.866;2022-12-18T00:03:52;62.70;;;28.15;;
75898;SDS011;64576;50.460;4.866;2022-12-18T00:06:19;58.40;;;23.83;;
75898;SDS011;64576;50.460;4.866;2022-12-18T00:08:45;50.80;;;23.45;;
75898;SDS011;64576;50.460;4.866;2022-12-18T00:11:12;66.22;;;31.67;;
75898;SDS011;64576;50.460;4.866;2022-12-18T00:13:41;61.97;;;28.10;;
75898;SDS011;64576;50.460;4.866;2022-12-18T00:16:07;50.42;;;23.75;;
75898;SDS011;64576;50.460;4.866;2022-12-18T00:18:35;38.17;;;19.17;;
75898;SDS011;64576;50.460;4.866;2022-12-18T00:21:02;48.60;;;25.23;;
75898;SDS011;64576;50.460;4.866;2022-12-18T00:23:29;43.28;;;20.90;;
75898;SDS011;64576;50.460;4.866;2022-12-18T00:25:59;40.22;;;19.05;;
75898;SDS011;64576;50.460;4.866;2022-12-18T00:28:25;31.63;;;16.30;;
75898;SDS011;64576;50.460;4.866;2022-12-18T00:30:51;40.60;;;16.38;;
75898;SDS011;64576;50.460;4.866;2022-12-18T00:35:49;37.15;;;17.45;;
75898;SDS011;64576;50.460;4.866;2022-12-18T00:38:14;29.42;;;14.43;;
75898;SDS011;64576;50.460;4.866;2022-12-18T00:40:39;37.53;;;19.58;;
75898;SDS011;64576;50.460;4.866;2022-12-18T00:43:04;33.97;;;16.30;;
75898;SDS011;64576;50.460;4.866;2022-12-18T00:45:30;32.80;;;16.65;;
75898;SDS011;64576;50.460;4.866;2022-12-18T00:47:56;33.80;;;17.38;;
75898;SDS011;64576;50.460;4.866;2022-12-18T00:50:22;35.55;;;16.58;;
75898;SDS011;64576;50.460;4.866;2022-12-18T00:52:49;41.60;;;20.42;;
75898;SDS011;64576;50.460;4.866;2022-12-18T00:55:14;26.05;;;12.80;;
75898;SDS011;64576;50.460;4.866;2022-12-18T00:57:40;33.58;;;19.42;;
75898;SDS011;64576;50.460;4.866;2022-12-18T01:00:06;38.17;;;19.33;;
75898;SDS011;64576;50.460;4.866;2022-12-18T01:02:33;44.65;;;19.55;;
75898;SDS011;64576;50.460;4.866;2022-12-18T01:04:58;36.53;;;18.00;;
75898;SDS011;64576;50.460;4.866;2022-12-18T01:07:24;36.58;;;18.52;;
75898;SDS011;64576;50.460;4.866;2022-12-18T01:09:49;32.72;;;17.13;;
75898;SDS011;64576;50.460;4.866;2022-12-18T01:12:14;40.25;;;22.08;;
75898;SDS011;64576;50.460;4.866;2022-12-18T01:14:40;38.75;;;17.50;;
75898;SDS011;64576;50.460;4.866;2022-12-18T01:17:06;28.00;;;14.55;;
75898;SDS011;64576;50.460;4.866;2022-12-18T01:19:31;30.38;;;13.48;;
75898;SDS011;64576;50.460;4.866;2022-12-18T01:21:57;30.23;;;14.23;;
75898;SDS011;64576;50.460;4.866;2022-12-18T01:24:22;21.33;;;11.25;;
75898;SDS011;64576;50.460;4.866;2022-12-18T01:26:47;27.20;;;13.50;;
75898;SDS011;64576;50.460;4.866;2022-12-18T01:29:13;25.88;;;14.30;;
75898;SDS011;64576;50.460;4.866;2022-12-18T01:31:38;28.83;;;15.77;;
75898;SDS011;64576;50.460;4.866;2022-12-18T01:34:04;37.50;;;19.95;;
75898;SDS011;64576;50.460;4.866;2022-12-18T01:36:31;27.63;;;14.10;;
75898;SDS011;64576;50.460;4.866;2022-12-18T01:38:59;26.15;;;13.27;;
75898;SDS011;64576;50.460;4.866;2022-12-18T01:41:27;23.88;;;11.25;;
75898;SDS011;64576;50.460;4.866;2022-12-18T01:47:50;30.17;;;16.37;;
75898;SDS011;64576;50.460;4.866;2022-12-18T01:53:05;30.50;;;14.82;;
75898;SDS011;64576;50.460;4.866;2022-12-18T01:55:55;33.47;;;18.23;;
75898;SDS011;64576;50.460;4.866;2022-12-18T01:58:23;42.35;;;17.08;;
75898;SDS011;64576;50.460;4.866;2022-12-18T02:00:52;33.35;;;16.02;;
75898;SDS011;64576;50.460;4.866;2022-12-18T02:03:19;26.60;;;13.27;;
75898;SDS011;64576;50.460;4.866;2022-12-18T02:08:30;35.00;;;16.67;;
75898;SDS011;64576;50.460;4.866;2022-12-18T02:11:32;23.30;;;12.82;;
75898;SDS011;64576;50.460;4.866;2022-12-18T02:19:53;31.70;;;15.85;;
75898;SDS011;64576;50.460;4.866;2022-12-18T02:22:36;27.20;;;11.75;;
75898;SDS011;64576;50.460;4.866;2022-12-18T02:27:59;39.53;;;13.82;;
75898;SDS011;64576;50.460;4.866;2022-12-18T02:30:27;27.40;;;13.98;;
75898;SDS011;64576;50.460;4.866;2022-12-18T02:32:56;29.67;;;15.23;;
75898;SDS011;64576;50.460;4.866;2022-12-18T02:35:24;27.63;;;11.30;;
75898;SDS011;64576;50.460;4.866;2022-12-18T02:37:54;22.60;;;11.23;;
75898;SDS011;64576;50.460;4.866;2022-12-18T02:40:20;17.35;;;7.10;;
75898;SDS011;64576;50.460;4.866;2022-12-18T02:42:48;19.13;;;8.85;;
75898;SDS011;64576;50.460;4.866;2022-12-18T02:45:13;20.33;;;8.88;;
75898;SDS011;64576;50.460;4.866;2022-12-18T02:47:40;25.95;;;9.95;;
75898;SDS011;64576;50.460;4.866;2022-12-18T02:50:30;25.20;;;12.18;;
75898;SDS011;64576;50.460;4.866;2022-12-18T03:01:28;23.58;;;9.43;;
75898;SDS011;64576;50.460;4.866;2022-12-18T03:04:11;18.67;;;8.68;;
75898;SDS011;64576;50.460;4.866;2022-12-18T03:06:44;19.88;;;9.27;;
75898;SDS011;64576;50.460;4.866;2022-12-18T03:09:18;17.90;;;9.15;;
75898;SDS011;64576;50.460;4.866;2022-12-18T03:11:48;23.88;;;9.52;;
75898;SDS011;64576;50.460;4.866;2022-12-18T03:14:38;21.10;;;9.15;;
75898;SDS011;64576;50.460;4.866;2022-12-18T03:17:07;18.20;;;7.43;;
75898;SDS011;64576;50.460;4.866;2022-12-18T03:19:37;18.75;;;7.53;;
75898;SDS011;64576;50.460;4.866;2022-12-18T03:22:04;17.88;;;8.25;;
75898;SDS011;64576;50.460;4.866;2022-12-18T03:24:32;12.77;;;7.00;;
75898;SDS011;64576;50.460;4.866;2022-12-18T03:27:00;16.52;;;7.53;;
75898;SDS011;64576;50.460;4.866;2022-12-18T03:29:31;14.38;;;7.95;;
75898;SDS011;64576;50.460;4.866;2022-12-18T03:32:03;26.98;;;10.70;;
75898;SDS011;64576;50.460;4.866;2022-12-18T03:34:33;36.17;;;17.35;;
75898;SDS011;64576;50.460;4.866;2022-12-18T03:37:01;32.50;;;15.45;;
75898;SDS011;64576;50.460;4.866;2022-12-18T03:39:27;42.03;;;21.95;;
75898;SDS011;64576;50.460;4.866;2022-12-18T03:41:57;43.40;;;22.70;;
75898;SDS011;64576;50.460;4.866;2022-12-18T03:44:29;46.83;;;24.10;;
75898;SDS011;64576;50.460;4.866;2022-12-18T03:49:48;25.17;;;14.13;;
75898;SDS011;64576;50.460;4.866;2022-12-18T03:52:21;20.75;;;13.70;;
75898;SDS011;64576;50.460;4.866;2022-12-18T03:54:51;22.70;;;11.80;;
75898;SDS011;64576;50.460;4.866;2022-12-18T03:57:21;29.25;;;15.05;;
75898;SDS011;64576;50.460;4.866;2022-12-18T03:59:50;22.23;;;10.63;;
75898;SDS011;64576;50.460;4.866;2022-12-18T04:02:20;17.70;;;9.13;;
75898;SDS011;64576;50.460;4.866;2022-12-18T04:04:47;27.58;;;13.40;;
75898;SDS011;64576;50.460;4.866;2022-12-18T04:07:16;30.27;;;15.68;;
75898;SDS011;64576;50.460;4.866;2022-12-18T04:09:43;24.02;;;12.93;;
75898;SDS011;64576;50.460;4.866;2022-12-18T04:12:10;22.40;;;9.13;;
75898;SDS011;64576;50.460;4.866;2022-12-18T04:14:36;30.88;;;14.80;;
75898;SDS011;64576;50.460;4.866;2022-12-18T04:17:01;26.15;;;11.02;;
75898;SDS011;64576;50.460;4.866;2022-12-18T04:19:27;30.83;;;14.57;;
75898;SDS011;64576;50.460;4.866;2022-12-18T04:21:53;28.77;;;12.80;;
75898;SDS011;64576;50.460;4.866;2022-12-18T04:24:18;19.67;;;8.52;;
75898;SDS011;64576;50.460;4.866;2022-12-18T04:26:43;12.80;;;8.05;;
75898;SDS011;64576;50.460;4.866;2022-12-18T04:29:09;18.40;;;8.73;;
75898;SDS011;64576;50.460;4.866;2022-12-18T04:31:34;12.60;;;5.75;;
75898;SDS011;64576;50.460;4.866;2022-12-18T04:34:00;17.02;;;9.55;;
75898;SDS011;64576;50.460;4.866;2022-12-18T04:36:25;17.65;;;10.32;;
75898;SDS011;64576;50.460;4.866;2022-12-18T04:38:51;13.95;;;7.43;;
75898;SDS011;64576;50.460;4.866;2022-12-18T04:41:16;14.45;;;7.70;;
75898;SDS011;64576;50.460;4.866;2022-12-18T04:43:41;15.50;;;8.18;;
75898;SDS011;64576;50.460;4.866;2022-12-18T04:46:07;17.77;;;6.82;;
75898;SDS011;64576;50.460;4.866;2022-12-18T04:48:33;12.15;;;6.07;;
75898;SDS011;64576;50.460;4.866;2022-12-18T04:50:59;17.33;;;7.88;;
75898;SDS011;64576;50.460;4.866;2022-12-18T04:53:24;17.65;;;6.85;;
75898;SDS011;64576;50.460;4.866;2022-12-18T04:55:50;11.75;;;6.07;;
75898;SDS011;64576;50.460;4.866;2022-12-18T04:58:15;14.35;;;5.57;;
75898;SDS011;64576;50.460;4.866;2022-12-18T05:00:41;17.55;;;6.72;;
75898;SDS011;64576;50.460;4.866;2022-12-18T05:03:06;13.85;;;5.88;;
75898;SDS011;64576;50.460;4.866;2022-12-18T05:05:31;14.07;;;5.63;;
75898;SDS011;64576;50.460;4.866;2022-12-18T05:08:00;14.60;;;6.13;;
75898;SDS011;64576;50.460;4.866;2022-12-18T05:10:25;13.25;;;6.30;;
75898;SDS011;64576;50.460;4.866;2022-12-18T05:12:50;14.07;;;6.57;;
75898;SDS011;64576;50.460;4.866;2022-12-18T05:15:31;19.35;;;11.02;;
75898;SDS011;64576;50.460;4.866;2022-12-18T05:17:57;19.35;;;8.48;;
75898;SDS011;64576;50.460;4.866;2022-12-18T05:20:23;15.68;;;7.95;;
75898;SDS011;64576;50.460;4.866;2022-12-18T05:22:49;18.15;;;9.70;;
75898;SDS011;64576;50.460;4.866;2022-12-18T05:25:15;21.05;;;9.77;;
75898;SDS011;64576;50.460;4.866;2022-12-18T05:27:40;16.48;;;8.18;;
75898;SDS011;64576;50.460;4.866;2022-12-18T05:30:06;15.10;;;7.68;;
75898;SDS011;64576;50.460;4.866;2022-12-18T05:32:33;22.02;;;10.00;;
75898;SDS011;64576;50.460;4.866;2022-12-18T05:34:58;15.15;;;7.22;;
75898;SDS011;64576;50.460;4.866;2022-12-18T05:37:23;16.10;;;7.47;;
75898;SDS011;64576;50.460;4.866;2022-12-18T05:39:49;14.60;;;8.32;;
75898;SDS011;64576;50.460;4.866;2022-12-18T05:42:14;12.13;;;6.25;;
75898;SDS011;64576;50.460;4.866;2022-12-18T05:44:39;9.18;;;4.95;;
75898;SDS011;64576;50.460;4.866;2022-12-18T05:47:05;15.88;;;6.30;;
75898;SDS011;64576;50.460;4.866;2022-12-18T05:49:30;15.80;;;6.88;;
75898;SDS011;64576;50.460;4.866;2022-12-18T05:51:56;11.90;;;5.82;;
75898;SDS011;64576;50.460;4.866;2022-12-18T05:54:21;12.90;;;6.90;;
75898;SDS011;64576;50.460;4.866;2022-12-18T05:56:46;15.30;;;5.45;;
75898;SDS011;64576;50.460;4.866;2022-12-18T05:59:12;12.15;;;5.22;;
75898;SDS011;64576;50.460;4.866;2022-12-18T06:01:37;11.30;;;5.57;;
75898;SDS011;64576;50.460;4.866;2022-12-18T06:04:02;9.27;;;4.28;;
75898;SDS011;64576;50.460;4.866;2022-12-18T06:06:28;11.50;;;5.75;;
75898;SDS011;64576;50.460;4.866;2022-12-18T06:08:54;16.80;;;6.25;;
75898;SDS011;64576;50.460;4.866;2022-12-18T06:11:25;16.67;;;7.35;;
75898;SDS011;64576;50.460;4.866;2022-12-18T06:13:55;14.07;;;7.82;;
75898;SDS011;64576;50.460;4.866;2022-12-18T06:16:21;16.98;;;7.50;;
75898;SDS011;64576;50.460;4.866;2022-12-18T06:18:47;15.20;;;7.57;;
75898;SDS011;64576;50.460;4.866;2022-12-18T06:21:12;16.17;;;8.15;;
75898;SDS011;64576;50.460;4.866;2022-12-18T06:23:38;16.30;;;7.85;;
75898;SDS011;64576;50.460;4.866;2022-12-18T06:26:07;18.48;;;9.80;;
75898;SDS011;64576;50.460;4.866;2022-12-18T06:28:34;15.45;;;8.57;;
75898;SDS011;64576;50.460;4.866;2022-12-18T06:31:00;20.13;;;10.90;;
75898;SDS011;64576;50.460;4.866;2022-12-18T06:33:27;22.75;;;10.73;;
75898;SDS011;64576;50.460;4.866;2022-12-18T06:35:53;20.98;;;11.20;;
75898;SDS011;64576;50.460;4.866;2022-12-18T06:38:19;30.85;;;12.25;;
75898;SDS011;64576;50.460;4.866;2022-12-18T06:40:44;16.90;;;8.63;;
75898;SDS011;64576;50.460;4.866;2022-12-18T06:43:09;18.17;;;8.30;;
75898;SDS011;64576;50.460;4.866;2022-12-18T06:45:35;15.68;;;8.10;;
75898;SDS011;64576;50.460;4.866;2022-12-18T06:48:00;22.15;;;10.30;;
75898;SDS011;64576;50.460;4.866;2022-12-18T06:50:26;11.45;;;6.50;;
75898;SDS011;64576;50.460;4.866;2022-12-18T06:52:51;16.13;;;7.68;;
75898;SDS011;64576;50.460;4.866;2022-12-18T06:55:17;17.08;;;7.93;;
75898;SDS011;64576;50.460;4.866;2022-12-18T06:57:42;19.25;;;8.60;;
75898;SDS011;64576;50.460;4.866;2022-12-18T07:00:08;21.20;;;10.52;;
75898;SDS011;64576;50.460;4.866;2022-12-18T07:02:33;24.02;;;9.48;;
75898;SDS011;64576;50.460;4.866;2022-12-18T07:04:59;19.15;;;8.68;;
75898;SDS011;64576;50.460;4.866;2022-12-18T07:07:24;19.85;;;9.57;;
75898;SDS011;64576;50.460;4.866;2022-12-18T07:09:49;25.10;;;12.18;;
75898;SDS011;64576;50.460;4.866;2022-12-18T07:12:15;16.65;;;7.45;;
75898;SDS011;64576;50.460;4.866;2022-12-18T07:14:41;16.58;;;8.02;;
75898;SDS011;64576;50.460;4.866;2022-12-18T07:17:06;18.70;;;7.18;;
75898;SDS011;64576;50.460;4.866;2022-12-18T07:19:32;12.88;;;6.10;;
75898;SDS011;64576;50.460;4.866;2022-12-18T07:21:58;17.35;;;9.00;;
75898;SDS011;64576;50.460;4.866;2022-12-18T07:24:23;13.85;;;7.15;;
75898;SDS011;64576;50.460;4.866;2022-12-18T07:26:49;16.77;;;7.43;;
75898;SDS011;64576;50.460;4.866;2022-12-18T07:29:14;18.73;;;7.70;;
75898;SDS011;64576;50.460;4.866;2022-12-18T07:31:40;10.73;;;5.85;;
75898;SDS011;64576;50.460;4.866;2022-12-18T07:34:05;14.43;;;6.85;;
75898;SDS011;64576;50.460;4.866;2022-12-18T07:36:35;16.92;;;7.80;;
75898;SDS011;64576;50.460;4.866;2022-12-18T07:39:00;14.65;;;7.40;;
75898;SDS011;64576;50.460;4.866;2022-12-18T07:41:26;16.67;;;8.13;;
75898;SDS011;64576;50.460;4.866;2022-12-18T07:43:51;20.00;;;8.07;;
75898;SDS011;64576;50.460;4.866;2022-12-18T07:46:17;16.55;;;8.73;;
75898;SDS011;64576;50.460;4.866;2022-12-18T07:48:43;14.30;;;6.53;;
75898;SDS011;64576;50.460;4.866;2022-12-18T07:51:08;17.10;;;9.38;;
75898;SDS011;64576;50.460;4.866;2022-12-18T07:53:34;22.52;;;8.75;;
75898;SDS011;64576;50.460;4.866;2022-12-18T07:56:01;14.23;;;8.27;;
75898;SDS011;64576;50.460;4.866;2022-12-18T07:58:31;18.73;;;9.50;;
75898;SDS011;64576;50.460;4.866;2022-12-18T08:01:07;14.73;;;7.93;;
75898;SDS011;64576;50.460;4.866;2022-12-18T08:03:34;17.00;;;8.48;;
75898;SDS011;64576;50.460;4.866;2022-12-18T08:06:01;9.93;;;5.05;;
75898;SDS011;64576;50.460;4.866;2022-12-18T08:08:28;18.08;;;8.93;;
75898;SDS011;64576;50.460;4.866;2022-12-18T08:10:53;18.55;;;8.95;;
75898;SDS011;64576;50.460;4.866;2022-12-18T08:13:19;22.60;;;8.00;;
75898;SDS011;64576;50.460;4.866;2022-12-18T08:15:44;20.20;;;7.72;;
75898;SDS011;64576;50.460;4.866;2022-12-18T08:18:09;20.50;;;8.70;;
75898;SDS011;64576;50.460;4.866;2022-12-18T08:20:35;21.55;;;9.13;;
75898;SDS011;64576;50.460;4.866;2022-12-18T08:23:00;17.45;;;9.32;;
75898;SDS011;64576;50.460;4.866;2022-12-18T08:25:25;17.95;;;10.70;;
75898;SDS011;64576;50.460;4.866;2022-12-18T08:27:51;19.13;;;9.40;;
75898;SDS011;64576;50.460;4.866;2022-12-18T08:30:16;16.95;;;9.10;;
75898;SDS011;64576;50.460;4.866;2022-12-18T08:32:41;22.75;;;11.30;;
75898;SDS011;64576;50.460;4.866;2022-12-18T08:35:07;18.98;;;9.48;;
75898;SDS011;64576;50.460;4.866;2022-12-18T08:37:33;24.48;;;11.85;;
75898;SDS011;64576;50.460;4.866;2022-12-18T08:39:58;20.23;;;11.02;;
75898;SDS011;64576;50.460;4.866;2022-12-18T08:42:24;23.58;;;11.90;;
75898;SDS011;64576;50.460;4.866;2022-12-18T08:45:08;18.45;;;7.70;;
75898;SDS011;64576;50.460;4.866;2022-12-18T08:47:34;20.20;;;10.13;;
75898;SDS011;64576;50.460;4.866;2022-12-18T08:49:59;14.70;;;7.85;;
75898;SDS011;64576;50.460;4.866;2022-12-18T08:52:24;24.60;;;14.35;;
75898;SDS011;64576;50.460;4.866;2022-12-18T08:54:50;22.33;;;10.55;;
75898;SDS011;64576;50.460;4.866;2022-12-18T08:57:15;25.45;;;12.40;;
75898;SDS011;64576;50.460;4.866;2022-12-18T08:59:41;25.20;;;11.55;;
75898;SDS011;64576;50.460;4.866;2022-12-18T09:02:07;20.08;;;10.88;;
75898;SDS011;64576;50.460;4.866;2022-12-18T09:04:34;21.23;;;10.90;;
75898;SDS011;64576;50.460;4.866;2022-12-18T09:07:00;23.27;;;11.90;;
75898;SDS011;64576;50.460;4.866;2022-12-18T09:09:25;22.13;;;10.45;;
75898;SDS011;64576;50.460;4.866;2022-12-18T09:11:50;22.35;;;12.13;;
75898;SDS011;64576;50.460;4.866;2022-12-18T09:14:15;24.25;;;12.48;;
75898;SDS011;64576;50.460;4.866;2022-12-18T09:16:41;20.17;;;11.10;;
75898;SDS011;64576;50.460;4.866;2022-12-18T09:19:07;20.67;;;11.65;;
75898;SDS011;64576;50.460;4.866;2022-12-18T09:21:33;22.40;;;12.93;;
75898;SDS011;64576;50.460;4.866;2022-12-18T09:24:03;23.27;;;12.63;;
75898;SDS011;64576;50.460;4.866;2022-12-18T09:26:29;26.55;;;13.25;;
75898;SDS011;64576;50.460;4.866;2022-12-18T09:28:55;33.58;;;19.63;;
75898;SDS011;64576;50.460;4.866;2022-12-18T09:31:21;23.45;;;12.02;;
75898;SDS011;64576;50.460;4.866;2022-12-18T09:33:48;26.20;;;12.13;;
75898;SDS011;64576;50.460;4.866;2022-12-18T09:36:15;29.65;;;16.73;;
75898;SDS011;64576;50.460;4.866;2022-12-18T09:38:42;28.88;;;14.13;;
75898;SDS011;64576;50.460;4.866;2022-12-18T09:41:43;25.40;;;16.00;;
75898;SDS011;64576;50.460;4.866;2022-12-18T09:44:10;25.38;;;13.85;;
75898;SDS011;64576;50.460;4.866;2022-12-18T09:49:26;23.00;;;11.05;;
75898;SDS011;64576;50.460;4.866;2022-12-18T09:52:03;28.83;;;14.30;;
75898;SDS011;64576;50.460;4.866;2022-12-18T09:54:49;27.00;;;12.65;;
75898;SDS011;64576;50.460;4.866;2022-12-18T09:57:20;24.23;;;15.07;;
75898;SDS011;64576;50.460;4.866;2022-12-18T09:59:50;20.05;;;9.65;;
75898;SDS011;64576;50.460;4.866;2022-12-18T10:02:20;26.55;;;15.60;;
75898;SDS011;64576;50.460;4.866;2022-12-18T10:05:06;29.45;;;15.05;;
75898;SDS011;64576;50.460;4.866;2022-12-18T10:16:06;23.30;;;13.32;;
75898;SDS011;64576;50.460;4.866;2022-12-18T10:18:37;22.40;;;12.40;;
75898;SDS011;64576;50.460;4.866;2022-12-18T10:21:13;24.90;;;12.85;;
75898;SDS011;64576;50.460;4.866;2022-12-18T10:23:49;23.92;;;12.55;;
75898;SDS011;64576;50.460;4.866;2022-12-18T10:26:25;25.70;;;13.20;;
75898;SDS011;64576;50.460;4.866;2022-12-18T10:28:50;21.88;;;11.05;;
75898;SDS011;64576;50.460;4.866;2022-12-18T10:31:17;17.45;;;10.52;;
75898;SDS011;64576;50.460;4.866;2022-12-18T10:33:45;26.15;;;12.80;;
75898;SDS011;64576;50.460;4.866;2022-12-18T10:36:10;25.15;;;13.02;;
75898;SDS011;64576;50.460;4.866;2022-12-18T10:38:36;19.10;;;12.38;;
75898;SDS011;64576;50.460;4.866;2022-12-18T10:41:03;25.00;;;14.15;;
75898;SDS011;64576;50.460;4.866;2022-12-18T10:43:34;25.25;;;13.38;;
75898;SDS011;64576;50.460;4.866;2022-12-18T10:48:33;24.80;;;12.27;;
75898;SDS011;64576;50.460;4.866;2022-12-18T10:51:01;20.85;;;10.90;;
75898;SDS011;64576;50.460;4.866;2022-12-18T10:53:28;23.92;;;10.23;;
75898;SDS011;64576;50.460;4.866;2022-12-18T10:55:56;17.55;;;11.30;;
75898;SDS011;64576;50.460;4.866;2022-12-18T10:58:28;24.52;;;14.45;;
75898;SDS011;64576;50.460;4.866;2022-12-18T11:06:29;21.25;;;12.07;;
75898;SDS011;64576;50.460;4.866;2022-12-18T11:09:03;22.40;;;11.60;;
75898;SDS011;64576;50.460;4.866;2022-12-18T11:11:30;18.80;;;10.60;;
75898;SDS011;64576;50.460;4.866;2022-12-18T11:13:58;22.98;;;12.32;;
75898;SDS011;64576;50.460;4.866;2022-12-18T11:16:29;25.80;;;15.65;;
75898;SDS011;64576;50.460;4.866;2022-12-18T11:19:10;20.08;;;12.73;;
75898;SDS011;64576;50.460;4.866;2022-12-18T11:21:49;23.65;;;14.55;;
75898;SDS011;64576;50.460;4.866;2022-12-18T11:24:18;19.33;;;11.30;;
75898;SDS011;64576;50.460;4.866;2022-12-18T11:26:46;24.45;;;11.80;;
75898;SDS011;64576;50.460;4.866;2022-12-18T11:29:16;22.92;;;13.25;;
75898;SDS011;64576;50.460;4.866;2022-12-18T11:31:43;24.67;;;15.75;;
75898;SDS011;64576;50.460;4.866;2022-12-18T11:34:12;24.02;;;14.75;;
75898;SDS011;64576;50.460;4.866;2022-12-18T11:36:43;28.10;;;15.52;;
75898;SDS011;64576;50.460;4.866;2022-12-18T11:45:07;24.25;;;13.73;;
75898;SDS011;64576;50.460;4.866;2022-12-18T11:47:43;29.77;;;17.67;;
75898;SDS011;64576;50.460;4.866;2022-12-18T11:50:19;29.02;;;18.58;;
75898;SDS011;64576;50.460;4.866;2022-12-18T11:52:48;23.67;;;12.82;;
75898;SDS011;64576;50.460;4.866;2022-12-18T12:23:12;31.05;;;13.98;;
75898;SDS011;64576;50.460;4.866;2022-12-18T12:39:28;34.95;;;16.80;;
75898;SDS011;64576;50.460;4.866;2022-12-18T12:42:02;31.88;;;15.10;;
75898;SDS011;64576;50.460;4.866;2022-12-18T12:44:51;25.13;;;13.32;;
75898;SDS011;64576;50.460;4.866;2022-12-18T12:47:27;23.90;;;13.30;;
75898;SDS011;64576;50.460;4.866;2022-12-18T12:50:15;33.08;;;19.00;;
75898;SDS011;64576;50.460;4.866;2022-12-18T12:52:47;35.92;;;19.17;;
75898;SDS011;64576;50.460;4.866;2022-12-18T12:55:18;28.55;;;14.93;;
75898;SDS011;64576;50.460;4.866;2022-12-18T12:57:54;38.58;;;22.58;;
75898;SDS011;64576;50.460;4.866;2022-12-18T13:00:31;35.00;;;17.05;;
75898;SDS011;64576;50.460;4.866;2022-12-18T13:08:11;34.50;;;14.65;;
75898;SDS011;64576;50.460;4.866;2022-12-18T13:10:46;40.72;;;23.65;;
75898;SDS011;64576;50.460;4.866;2022-12-18T13:13:13;39.08;;;18.05;;
75898;SDS011;64576;50.460;4.866;2022-12-18T13:15:47;35.78;;;16.75;;
75898;SDS011;64576;50.460;4.866;2022-12-18T13:18:22;38.60;;;19.77;;
75898;SDS011;64576;50.460;4.866;2022-12-18T13:23:25;27.65;;;13.40;;
75898;SDS011;64576;50.460;4.866;2022-12-18T13:25:53;38.20;;;19.60;;
75898;SDS011;64576;50.460;4.866;2022-12-18T13:31:57;30.80;;;15.50;;
75898;SDS011;64576;50.460;4.866;2022-12-18T13:34:18;36.40;;;20.77;;
75898;SDS011;64576;50.460;4.866;2022-12-18T13:36:48;33.70;;;18.20;;
75898;SDS011;64576;50.460;4.866;2022-12-18T13:41:44;35.03;;;18.58;;
75898;SDS011;64576;50.460;4.866;2022-12-18T13:50:22;38.75;;;20.50;;
75898;SDS011;64576;50.460;4.866;2022-12-18T13:52:49;33.78;;;16.58;;
75898;SDS011;64576;50.460;4.866;2022-12-18T13:55:17;34.05;;;18.50;;
75898;SDS011;64576;50.460;4.866;2022-12-18T13:57:44;37.70;;;18.00;;
75898;SDS011;64576;50.460;4.866;2022-12-18T14:00:23;39.92;;;20.73;;
75898;SDS011;64576;50.460;4.866;2022-12-18T14:02:50;39.05;;;16.73;;
75898;SDS011;64576;50.460;4.866;2022-12-18T14:05:27;36.20;;;16.92;;
75898;SDS011;64576;50.460;4.866;2022-12-18T14:07:54;37.08;;;24.63;;
75898;SDS011;64576;50.460;4.866;2022-12-18T14:10:26;42.83;;;23.70;;
75898;SDS011;64576;50.460;4.866;2022-12-18T14:12:52;43.67;;;25.30;;
75898;SDS011;64576;50.460;4.866;2022-12-18T14:15:27;33.85;;;18.65;;
75898;SDS011;64576;50.460;4.866;2022-12-18T14:18:00;46.33;;;22.48;;
75898;SDS011;64576;50.460;4.866;2022-12-18T14:20:29;39.08;;;19.98;;
75898;SDS011;64576;50.460;4.866;2022-12-18T14:22:57;37.33;;;21.40;;
75898;SDS011;64576;50.460;4.866;2022-12-18T14:25:25;38.85;;;20.45;;
75898;SDS011;64576;50.460;4.866;2022-12-18T14:30:36;41.85;;;23.50;;
75898;SDS011;64576;50.460;4.866;2022-12-18T14:33:04;36.10;;;20.17;;
75898;SDS011;64576;50.460;4.866;2022-12-18T14:35:36;37.90;;;18.95;;
75898;SDS011;64576;50.460;4.866;2022-12-18T14:40:55;33.90;;;17.83;;
75898;SDS011;64576;50.460;4.866;2022-12-18T14:43:39;45.58;;;24.77;;
75898;SDS011;64576;50.460;4.866;2022-12-18T14:46:19;34.63;;;16.33;;
75898;SDS011;64576;50.460;4.866;2022-12-18T14:48:52;37.67;;;19.42;;
75898;SDS011;64576;50.460;4.866;2022-12-18T14:51:22;36.10;;;16.55;;
75898;SDS011;64576;50.460;4.866;2022-12-18T14:53:57;34.42;;;15.50;;
75898;SDS011;64576;50.460;4.866;2022-12-18T14:56:29;37.85;;;18.55;;
75898;SDS011;64576;50.460;4.866;2022-12-18T14:58:57;39.15;;;22.67;;
75898;SDS011;64576;50.460;4.866;2022-12-18T15:01:34;36.83;;;15.80;;
75898;SDS011;64576;50.460;4.866;2022-12-18T15:09:42;32.40;;;15.70;;
75898;SDS011;64576;50.460;4.866;2022-12-18T15:13:14;43.53;;;23.45;;
75898;SDS011;64576;50.460;4.866;2022-12-18T15:15:05;41.72;;;19.45;;
75898;SDS011;64576;50.460;4.866;2022-12-18T15:18:04;40.08;;;17.90;;
75898;SDS011;64576;50.460;4.866;2022-12-18T15:20:38;45.20;;;18.42;;
75898;SDS011;64576;50.460;4.866;2022-12-18T15:23:13;48.65;;;23.58;;
75898;SDS011;64576;50.460;4.866;2022-12-18T15:25:40;43.72;;;18.00;;
75898;SDS011;64576;50.460;4.866;2022-12-18T15:28:25;38.90;;;18.58;;
75898;SDS011;64576;50.460;4.866;2022-12-18T15:30:57;40.83;;;18.88;;
75898;SDS011;64576;50.460;4.866;2022-12-18T15:33:25;38.60;;;19.25;;
75898;SDS011;64576;50.460;4.866;2022-12-18T15:35:55;45.97;;;20.52;;
75898;SDS011;64576;50.460;4.866;2022-12-18T15:38:22;42.17;;;25.77;;
75898;SDS011;64576;50.460;4.866;2022-12-18T15:40:47;34.53;;;16.85;;
75898;SDS011;64576;50.460;4.866;2022-12-18T15:43:13;34.67;;;18.40;;
75898;SDS011;64576;50.460;4.866;2022-12-18T15:45:57;44.38;;;22.05;;
75898;SDS011;64576;50.460;4.866;2022-12-18T15:48:22;43.95;;;18.65;;
75898;SDS011;64576;50.460;4.866;2022-12-18T15:50:49;50.08;;;27.77;;
75898;SDS011;64576;50.460;4.866;2022-12-18T15:53:15;40.60;;;19.73;;
75898;SDS011;64576;50.460;4.866;2022-12-18T15:55:41;48.58;;;27.67;;
75898;SDS011;64576;50.460;4.866;2022-12-18T15:58:25;48.35;;;28.98;;
75898;SDS011;64576;50.460;4.866;2022-12-18T16:00:50;47.50;;;21.45;;
75898;SDS011;64576;50.460;4.866;2022-12-18T16:03:16;45.00;;;21.40;;
75898;SDS011;64576;50.460;4.866;2022-12-18T16:05:41;46.33;;;22.10;;
75898;SDS011;64576;50.460;4.866;2022-12-18T16:08:06;48.22;;;20.90;;
75898;SDS011;64576;50.460;4.866;2022-12-18T16:10:32;42.28;;;21.58;;
75898;SDS011;64576;50.460;4.866;2022-12-18T16:12:57;37.33;;;16.95;;
75898;SDS011;64576;50.460;4.866;2022-12-18T16:15:23;47.92;;;24.27;;
75898;SDS011;64576;50.460;4.866;2022-12-18T16:17:48;41.22;;;22.38;;
75898;SDS011;64576;50.460;4.866;2022-12-18T16:20:18;37.42;;;22.48;;
75898;SDS011;64576;50.460;4.866;2022-12-18T16:22:45;42.72;;;24.48;;
75898;SDS011;64576;50.460;4.866;2022-12-18T16:25:22;41.85;;;19.13;;
75898;SDS011;64576;50.460;4.866;2022-12-18T16:27:49;48.47;;;24.48;;
75898;SDS011;64576;50.460;4.866;2022-12-18T16:30:16;41.95;;;20.80;;
75898;SDS011;64576;50.460;4.866;2022-12-18T16:32:46;46.97;;;23.63;;
75898;SDS011;64576;50.460;4.866;2022-12-18T16:35:12;40.60;;;20.77;;
75898;SDS011;64576;50.460;4.866;2022-12-18T16:37:40;39.15;;;20.05;;
75898;SDS011;64576;50.460;4.866;2022-12-18T16:40:06;38.58;;;21.52;;
75898;SDS011;64576;50.460;4.866;2022-12-18T16:42:34;42.85;;;22.55;;
75898;SDS011;64576;50.460;4.866;2022-12-18T16:45:01;47.20;;;23.92;;